Time;durP1;ratioP1;P1;durP2;ratioP2;P2;SDS_P1;SDS_P2;PMS_P1;PMS_P2;Temp;Humidity;BMP_temperature;BMP_pressure;BME280_temperature;BME280_humidity;BME280_pressure;Samples;Min_cycle;Max_cycle;Signal;HPM_P1;HPM_P2
2022/10/08 00:01:45;;;;;;;9.65;2.22;;;;;;;11.85;83.34;101453.81;5137435;27;20027;-88
2022/10/08 00:04:20;;;;;;;9.40;2.28;;;;;;;11.86;83.88;101456.31;5137256;27;20022;-88
2022/10/08 00:06:45;;;;;;;12.40;2.90;;;;;;;11.87;83.82;101466.16;5136915;27;20120;-88
2022/10/08 00:09:13;;;;;;;9.73;2.00;;;;;;;11.88;84.13;101453.38;5137385;27;20139;-88
2022/10/08 00:11:39;;;;;;;11.00;2.77;;;;;;;11.87;83.62;101432.66;5155449;27;20037;-87
2022/10/08 00:14:10;;;;;;;11.02;2.20;;;;;;;11.95;83.48;101464.31;5137248;27;20022;-87
2022/10/08 00:16:42;;;;;;;11.77;2.30;;;;;;;11.96;83.60;101445.06;5102766;27;20062;-88
2022/10/08 00:19:12;;;;;;;12.75;2.50;;;;;;;11.97;83.41;101445.88;5155442;27;20030;-87
2022/10/08 00:21:41;;;;;;;12.13;2.47;;;;;;;12.01;83.52;101447.16;5137209;27;20026;-87
2022/10/08 00:24:16;;;;;;;9.53;2.40;;;;;;;11.98;84.08;101442.13;5136875;27;20462;-87
2022/10/08 00:26:43;;;;;;;10.65;2.45;;;;;;;12.00;83.86;101445.47;5136811;27;20070;-87
2022/10/08 00:29:16;;;;;;;13.23;2.60;;;;;;;12.06;83.76;101456.34;5136692;27;20501;-87
2022/10/08 00:31:47;;;;;;;14.00;3.50;;;;;;;12.10;83.84;101451.31;5155536;27;20367;-88
2022/10/08 00:34:22;;;;;;;10.00;2.30;;;;;;;12.19;83.87;101454.66;5137216;27;20051;-88
2022/10/08 00:36:51;;;;;;;10.73;2.00;;;;;;;12.22;83.95;101463.25;5155491;27;20019;-88
2022/10/08 00:39:22;;;;;;;9.88;2.30;;;;;;;12.16;84.24;101441.47;5136568;27;20015;-88
2022/10/08 00:41:53;;;;;;;8.93;2.20;;;;;;;12.23;83.81;101450.47;5137242;27;20366;-87
2022/10/08 00:44:54;;;;;;;18.48;2.55;;;;;;;12.31;83.65;101458.38;5137638;27;20027;-87
2022/10/08 00:47:31;;;;;;;10.50;1.88;;;;;;;12.29;84.72;101460.50;5137219;27;20057;-87
2022/10/08 00:50:02;;;;;;;12.27;2.50;;;;;;;12.32;84.27;101454.63;5136814;27;20035;-87
2022/10/08 00:52:32;;;;;;;15.20;2.35;;;;;;;12.31;84.45;101461.13;5155933;27;20041;-87
2022/10/08 00:54:58;;;;;;;10.05;2.10;;;;;;;12.32;84.57;101461.97;5155106;27;20027;-88
2022/10/08 00:57:25;;;;;;;13.30;2.22;;;;;;;12.35;84.49;101456.94;5136960;27;20542;-87
2022/10/08 00:59:51;;;;;;;13.50;2.50;;;;;;;12.30;84.77;101451.28;5137018;27;20030;-87
2022/10/08 01:02:18;;;;;;;9.57;2.10;;;;;;;12.33;85.16;101469.06;5159127;27;20023;-88
2022/10/08 01:04:48;;;;;;;9.68;2.10;;;;;;;12.37;85.07;101476.63;5140737;27;20062;-87
2022/10/08 01:07:28;;;;;;;13.52;2.53;;;;;;;12.33;85.05;101458.19;5159180;27;20030;-87
2022/10/08 01:10:29;;;;;;;10.67;2.50;;;;;;;12.41;85.64;101475.13;5140988;27;20042;-88
2022/10/08 01:13:19;;;;;;;13.05;2.03;;;;;;;12.39;87.19;101485.38;5141052;27;20484;-87
2022/10/08 01:15:54;;;;;;;9.57;2.38;;;;;;;12.29;90.13;101485.81;5159365;27;20050;-87
2022/10/08 01:18:53;;;;;;;20.35;2.88;;;;;;;12.13;92.67;101488.16;5141034;27;20075;-87
2022/10/08 01:21:21;;;;;;;12.32;2.58;;;;;;;11.99;93.72;101496.31;5141074;27;20037;-88
2022/10/08 01:24:11;;;;;;;16.50;3.40;;;;;;;11.83;95.65;101496.69;5140997;27;20023;-88
2022/10/08 01:27:04;;;;;;;11.10;2.67;;;;;;;11.58;96.63;101484.50;5140650;27;20037;-88
2022/10/08 01:29:48;;;;;;;9.82;2.80;;;;;;;11.55;96.96;101475.94;5158729;27;20474;-87
2022/10/08 01:32:20;;;;;;;15.18;2.85;;;;;;;11.55;97.87;101484.09;5140550;27;20031;-87
2022/10/08 01:35:01;;;;;;;10.00;2.47;;;;;;;11.46;98.34;101474.47;5140304;27;20035;-87
2022/10/08 01:37:36;;;;;;;10.53;2.30;;;;;;;11.37;98.83;101477.38;5141065;27;20023;-88
2022/10/08 01:40:11;;;;;;;9.25;2.33;;;;;;;11.29;99.78;101476.72;5158837;27;20026;-87
2022/10/08 01:42:42;;;;;;;12.13;2.00;;;;;;;11.31;99.48;101490.94;5158718;27;20415;-88
2022/10/08 01:45:16;;;;;;;12.77;2.55;;;;;;;11.17;100.00;101490.88;5123899;27;20344;-88
2022/10/08 01:47:46;;;;;;;11.90;2.63;;;;;;;11.17;100.00;101490.88;5139770;27;20069;-87
2022/10/08 01:50:36;;;;;;;11.03;3.03;;;;;;;11.08;100.00;101475.81;5158578;27;20050;-87
2022/10/08 01:53:12;;;;;;;9.32;2.50;;;;;;;11.11;100.00;101488.16;5158595;27;20082;-87
2022/10/08 01:55:43;;;;;;;9.82;1.98;;;;;;;11.05;100.00;101485.19;5140158;27;20034;-88
2022/10/08 02:04:41;;;;;;;9.00;2.17;;;;;;;10.83;100.00;101505.38;5114297;28;20046;-89
2022/10/08 02:07:08;;;;;;;11.05;2.40;;;;;;;10.74;100.00;101509.31;5080617;28;20036;-88
2022/10/08 05:29:27;;;;;;;72.28;26.88;;;;;;;10.49;100.00;101629.97;5114198;27;20452;-88
2022/10/08 05:43:14;;;;;;;79.97;28.55;;;;;;;10.47;100.00;101644.78;5051423;28;20477;-89
2022/10/08 05:49:50;;;;;;;82.90;29.10;;;;;;;10.45;100.00;101653.13;5054014;28;20116;-88
2022/10/08 05:52:18;;;;;;;84.22;28.38;;;;;;;10.48;100.00;101649.16;5037502;28;20075;-87
2022/10/08 05:55:09;;;;;;;82.40;28.43;;;;;;;10.42;100.00;101653.50;5037430;28;20028;-94
2022/10/08 05:57:38;;;;;;;82.35;28.63;;;;;;;10.40;100.00;101654.75;5054471;28;20128;-90
2022/10/08 06:00:21;;;;;;;;;;;;;;;;;;;;;
2022/10/08 06:03:08;;;;;;;75.68;27.48;;;;;;;10.33;100.00;101671.81;5076524;27;20039;-90
2022/10/08 06:06:13;;;;;;;80.20;28.40;;;;;;;10.28;100.00;101673.38;5119238;27;20027;-87
2022/10/08 06:08:40;;;;;;;81.30;28.67;;;;;;;10.27;100.00;101677.09;5136751;27;20057;-87
2022/10/08 06:11:17;;;;;;;88.15;27.90;;;;;;;10.22;100.00;101679.56;5137473;27;20035;-86
2022/10/08 06:13:42;;;;;;;85.93;29.65;;;;;;;10.18;100.00;101688.06;5119483;27;20351;-86
2022/10/08 06:16:11;;;;;;;82.93;28.47;;;;;;;10.18;100.00;101670.97;5118874;27;20035;-86
2022/10/08 06:18:41;;;;;;;93.40;28.55;;;;;;;10.19;100.00;101683.50;5135684;27;20463;-87
2022/10/08 06:21:15;;;;;;;91.22;30.13;;;;;;;10.22;100.00;101698.56;5135833;27;20121;-86
2022/10/08 06:23:50;;;;;;;91.13;29.35;;;;;;;10.15;100.00;101693.06;5135443;27;20031;-86
2022/10/08 06:26:25;;;;;;;92.07;29.07;;;;;;;10.17;100.00;101707.25;5135858;27;20031;-86
2022/10/08 06:28:51;;;;;;;87.88;29.00;;;;;;;10.17;100.00;101699.09;5136689;27;20076;-87
2022/10/08 06:31:27;;;;;;;96.45;29.65;;;;;;;10.17;100.00;101701.81;5135477;27;20117;-86
2022/10/08 06:34:04;;;;;;;83.10;27.63;;;;;;;10.21;100.00;101715.84;5118481;27;20042;-86
2022/10/08 06:36:36;;;;;;;86.50;28.98;;;;;;;10.15;100.00;101709.31;5118993;27;20027;-86
2022/10/08 06:39:15;;;;;;;83.87;28.67;;;;;;;10.14;100.00;101713.91;5102263;27;20058;-86
2022/10/08 06:41:46;;;;;;;84.22;29.17;;;;;;;10.14;100.00;101716.63;5118540;27;20380;-86
2022/10/08 06:44:23;;;;;;;;;;;;;;;;;;;;;
2022/10/08 06:46:51;;;;;;;83.10;27.90;;;;;;;10.23;100.00;101741.75;5137514;27;20027;-87
2022/10/08 06:49:26;;;;;;;89.57;30.85;;;;;;;10.25;100.00;101736.97;5136185;27;20031;-87
2022/10/08 06:51:53;;;;;;;90.83;30.03;;;;;;;10.39;100.00;101737.16;5118189;27;20463;-87
2022/10/08 06:54:26;;;;;;;83.72;29.38;;;;;;;10.46;100.00;101746.19;5118299;27;20080;-86
2022/10/08 06:56:54;;;;;;;75.40;26.80;;;;;;;10.53;100.00;101771.53;5118446;27;20114;-86
2022/10/08 06:59:22;;;;;;;69.53;26.23;;;;;;;10.53;100.00;101763.41;5134995;27;20462;-86
2022/10/08 07:01:50;;;;;;;66.45;23.88;;;;;;;10.60;100.00;101767.03;5117779;27;20038;-86
2022/10/08 07:04:16;;;;;;;66.27;25.07;;;;;;;10.60;100.00;101764.31;5135780;27;20031;-86
2022/10/08 07:06:42;;;;;;;65.43;24.05;;;;;;;10.65;100.00;101775.41;5134878;27;20035;-86
2022/10/08 07:09:09;;;;;;;58.20;21.37;;;;;;;10.67;100.00;101778.78;5135830;27;20027;-86
2022/10/08 07:11:53;;;;;;;;;;;;;;;;;;;;;
2022/10/08 07:14:18;;;;;;;44.60;19.33;;;;;;;10.67;100.00;101805.06;5136596;27;20025;-89
2022/10/08 07:16:51;;;;;;;44.17;19.80;;;;;;;10.60;100.00;101791.44;5118459;27;20113;-87
2022/10/08 07:19:28;;;;;;;41.67;17.85;;;;;;;10.59;100.00;101794.34;5117617;27;20051;-87
2022/10/08 07:21:56;;;;;;;38.53;16.88;;;;;;;10.58;100.00;101793.50;5117569;27;20118;-87
2022/10/08 07:24:21;;;;;;;39.85;17.45;;;;;;;10.63;100.00;101804.63;5117061;27;20081;-87
2022/10/08 07:26:49;;;;;;;39.13;15.93;;;;;;;10.62;100.00;101810.25;5117276;27;20023;-86
2022/10/08 07:29:17;;;;;;;40.22;16.45;;;;;;;10.66;100.00;101811.56;5117317;27;20149;-87
2022/10/08 07:31:56;;;;;;;36.53;14.85;;;;;;;10.64;100.00;101817.16;5135297;27;20425;-87
2022/10/08 07:34:43;;;;;;;33.25;14.60;;;;;;;10.61;100.00;101811.28;5116970;27;20015;-87
2022/10/08 07:37:14;;;;;;;36.43;12.93;;;;;;;10.62;100.00;101815.69;5118024;27;20131;-87
2022/10/08 07:39:45;;;;;;;29.75;12.07;;;;;;;10.67;100.00;101822.22;5117843;27;20387;-87
2022/10/08 07:42:20;;;;;;;23.38;11.00;;;;;;;10.68;100.00;101826.59;5117006;27;20039;-87
2022/10/08 07:44:46;;;;;;;27.13;10.70;;;;;;;10.78;100.00;101820.03;5100609;27;20530;-87
2022/10/08 07:47:14;;;;;;;22.83;8.97;;;;;;;10.82;100.00;101833.03;5117281;27;20118;-87
2022/10/08 07:49:42;;;;;;;30.10;9.15;;;;;;;10.89;100.00;101830.34;5117474;27;20027;-87
2022/10/08 07:52:07;;;;;;;21.15;8.88;;;;;;;10.95;100.00;101839.59;5117183;27;20104;-86
2022/10/08 07:55:00;;;;;;;;;;;;;;;;;;;;;
2022/10/08 07:57:28;;;;;;;16.80;7.35;;;;;;;11.03;100.00;101831.34;5135339;27;20031;-87
2022/10/08 08:00:14;;;;;;;;;;;;;;;;;;;;;
2022/10/08 08:02:39;;;;;;;24.23;6.13;;;;;;;11.13;100.00;101848.16;5118632;27;20031;-79
2022/10/08 08:05:05;;;;;;;20.67;6.57;;;;;;;11.23;100.00;101855.97;5135009;27;20114;-80
2022/10/08 08:07:31;;;;;;;18.63;6.63;;;;;;;11.27;100.00;101851.81;5116951;27;20751;-87
2022/10/08 08:10:06;;;;;;;17.10;5.82;;;;;;;11.24;100.00;101852.22;5115501;28;20027;-87
2022/10/08 08:12:34;;;;;;;15.33;4.77;;;;;;;11.33;100.00;101863.78;5116158;28;20027;-86
2022/10/08 08:15:02;;;;;;;16.58;4.47;;;;;;;11.33;100.00;101856.47;5116667;27;20027;-87
2022/10/08 08:17:31;;;;;;;13.02;4.47;;;;;;;11.33;100.00;101859.19;5116390;27;20038;-86
2022/10/08 08:19:56;;;;;;;11.70;4.55;;;;;;;11.39;100.00;101868.44;5117134;27;20409;-86
2022/10/08 08:22:27;;;;;;;12.27;4.50;;;;;;;11.46;100.00;101879.38;5134480;27;20023;-86
2022/10/08 08:24:54;;;;;;;12.23;4.65;;;;;;;11.46;100.00;101872.06;5115827;28;20084;-86
2022/10/08 08:27:21;;;;;;;12.40;3.95;;;;;;;11.49;100.00;101874.38;5134357;27;20086;-86
2022/10/08 08:29:51;;;;;;;15.00;4.70;;;;;;;11.56;100.00;101882.59;5115706;28;20051;-87
2022/10/08 08:32:20;;;;;;;9.63;4.45;;;;;;;11.61;100.00;101885.53;5115840;27;20095;-88
2022/10/08 08:34:54;;;;;;;12.02;3.45;;;;;;;11.65;100.00;101892.28;5116663;28;20175;-87
2022/10/08 08:37:30;;;;;;;10.63;3.92;;;;;;;11.72;100.00;101911.34;5098952;28;20027;-87
2022/10/08 08:39:57;;;;;;;12.27;3.80;;;;;;;11.79;100.00;101911.41;5116845;27;20088;-87
2022/10/08 08:42:30;;;;;;;14.97;4.13;;;;;;;11.82;100.00;101913.72;5099465;28;20475;-88
2022/10/08 08:45:26;;;;;;;10.27;3.03;;;;;;;11.76;98.87;101905.31;5115779;28;20073;-87
2022/10/08 08:48:27;;;;;;;11.10;3.00;;;;;;;11.87;99.54;101908.53;5110791;28;20039;-86
2022/10/08 08:51:03;;;;;;;9.95;2.58;;;;;;;11.96;97.15;101925.56;5116077;28;20080;-86
2022/10/08 08:53:47;;;;;;;9.93;2.10;;;;;;;11.98;95.20;101926.22;5116801;28;20076;-87
2022/10/08 08:56:24;;;;;;;12.70;2.33;;;;;;;12.03;94.66;101921.88;5116815;28;20023;-88
2022/10/08 08:59:16;;;;;;;12.35;2.15;;;;;;;12.14;95.23;101927.81;5115890;28;20031;-86
2022/10/08 09:01:47;;;;;;;10.60;2.17;;;;;;;12.16;91.68;101923.00;5115955;28;20035;-87
2022/10/08 09:04:30;;;;;;;10.35;2.25;;;;;;;12.27;91.69;101930.59;5116239;28;20088;-86
2022/10/08 09:07:08;;;;;;;;;;;;;;;;;;;;;
2022/10/08 09:09:54;;;;;;;9.60;1.50;;;;;;;12.39;88.39;101925.44;5136058;28;20038;-87
2022/10/08 09:12:40;;;;;;;8.55;1.77;;;;;;;12.51;87.38;101939.31;5115878;28;20110;-87
2022/10/08 09:15:22;;;;;;;12.52;1.50;;;;;;;12.73;85.88;101950.94;5116023;28;20030;-87
2022/10/08 09:17:51;;;;;;;5.00;1.15;;;;;;;12.76;81.07;101942.38;5115523;28;20031;-87
2022/10/08 09:20:22;;;;;;;9.40;0.70;;;;;;;12.79;79.86;101939.22;5115785;28;20122;-86
2022/10/08 09:22:56;;;;;;;4.83;1.03;;;;;;;12.85;79.68;101945.75;5119732;27;20492;-86
2022/10/08 09:25:34;;;;;;;6.72;1.23;;;;;;;12.90;77.62;101946.81;5103279;27;20455;-87
2022/10/08 09:28:46;;;;;;;10.50;1.10;;;;;;;12.93;79.35;101951.00;5138144;27;20034;-86
2022/10/08 09:31:50;;;;;;;6.75;1.00;;;;;;;13.07;79.74;101951.91;5122683;27;20571;-87
2022/10/08 09:34:26;;;;;;;7.07;1.10;;;;;;;13.16;78.25;101959.66;5124112;27;20030;-86
2022/10/08 09:37:15;;;;;;;8.47;1.50;;;;;;;13.24;79.13;101972.28;5123961;27;20080;-87
2022/10/08 09:40:15;;;;;;;8.25;2.38;;;;;;;13.43;79.63;101976.09;5145876;27;20123;-87
2022/10/08 09:42:44;;;;;;;7.05;1.00;;;;;;;13.44;75.53;101971.50;5140023;27;20075;-86
2022/10/08 09:45:57;;;;;;;7.32;1.30;;;;;;;13.61;76.24;101967.34;5158351;27;20026;-87
2022/10/08 09:48:46;;;;;;;;;;;;;;;;;;;;;
2022/10/08 09:51:19;;;;;;;10.90;1.00;;;;;;;13.96;73.62;101971.75;5159620;27;20035;-86
2022/10/08 09:54:02;;;;;;;10.50;1.20;;;;;;;14.07;72.45;101978.44;5139689;27;20466;-87
2022/10/08 09:56:32;;;;;;;6.38;1.23;;;;;;;14.21;72.05;101985.59;5140025;27;20031;-87
2022/10/08 09:59:06;;;;;;;8.07;1.42;;;;;;;14.39;69.48;102015.81;5123015;27;20037;-87
2022/10/08 10:01:35;;;;;;;8.10;1.13;;;;;;;14.53;67.15;101997.50;5139767;27;20102;-86
2022/10/08 10:04:12;;;;;;;;;;;;;;;;;;;;;
2022/10/08 10:06:48;;;;;;;7.95;0.98;;;;;;;14.59;64.88;101993.06;5158760;27;20037;-87
2022/10/08 10:09:22;;;;;;;6.20;0.93;;;;;;;14.54;64.22;102001.91;5158052;27;20058;-87
2022/10/08 10:11:58;;;;;;;5.93;1.30;;;;;;;14.50;65.61;102002.56;5139745;27;20076;-87
2022/10/08 10:14:45;;;;;;;7.28;1.17;;;;;;;14.45;66.75;102007.81;5140226;27;20033;-87
2022/10/08 10:17:38;;;;;;;7.70;0.97;;;;;;;14.36;66.25;101996.25;5158294;27;20076;-86
2022/10/08 10:20:13;;;;;;;3.83;0.90;;;;;;;14.36;66.32;101999.00;5157579;27;20401;-87
2022/10/08 10:25:49;;;;;;;6.57;1.38;;;;;;;14.66;67.82;101996.66;5118299;27;20042;-85
2022/10/08 10:28:21;;;;;;;4.88;0.90;;;;;;;14.93;64.28;102006.66;5139109;27;20537;-83
2022/10/08 10:31:04;;;;;;;6.10;0.90;;;;;;;15.30;64.01;102013.19;5138785;27;20115;-83
2022/10/08 10:33:33;;;;;;;5.35;0.95;;;;;;;15.33;61.30;102004.56;5137977;27;20351;-85
2022/10/08 10:36:04;;;;;;;4.47;0.95;;;;;;;15.25;61.49;102023.94;5139055;27;20044;-85
2022/10/08 10:38:37;;;;;;;6.63;1.27;;;;;;;15.27;60.93;102019.94;5139388;27;20046;-85
2022/10/08 10:41:20;;;;;;;5.40;0.90;;;;;;;15.24;59.21;102019.56;5139227;27;20030;-85
2022/10/08 10:43:59;;;;;;;5.90;1.17;;;;;;;15.35;59.56;102029.78;5157525;27;20078;-89
2022/10/08 10:46:40;;;;;;;4.72;1.05;;;;;;;15.44;59.60;102005.75;5138537;27;20031;-87
2022/10/08 10:49:32;;;;;;;;;;;;;;;;;;;;;
2022/10/08 10:52:46;;;;;;;4.68;0.90;;;;;;;15.91;57.59;102013.66;5158064;27;20027;-88
2022/10/08 10:58:56;;;;;;;3.00;0.87;;;;;;;16.69;55.04;102023.25;5157275;27;20086;-88
2022/10/08 11:01:53;;;;;;;4.50;0.70;;;;;;;19.23;54.67;102015.59;5157105;27;20038;-88
2022/10/08 11:08:31;;;;;;;;;;;;;;;;;;;;;
2022/10/08 11:14:46;;;;;;;;;;;;;;;;;;;;;
2022/10/08 11:17:39;;;;;;;2.55;1.30;;;;;;;25.35;33.21;102019.06;5157091;27;20018;-88
2022/10/08 11:20:27;;;;;;;5.10;1.50;;;;;;;26.82;35.00;102016.34;5137596;27;20394;-87
2022/10/08 11:23:38;;;;;;;5.28;1.52;;;;;;;28.70;29.11;102013.59;5156363;27;20026;-87
2022/10/08 11:26:16;;;;;;;3.53;1.63;;;;;;;27.80;29.06;102033.34;5137600;27;20029;-87
2022/10/08 11:28:52;;;;;;;5.80;1.20;;;;;;;25.29;30.95;102021.00;5138533;27;20027;-87
2022/10/08 11:31:21;;;;;;;5.80;1.50;;;;;;;23.23;34.57;102026.00;5137714;27;20046;-87
2022/10/08 11:33:48;;;;;;;9.80;1.40;;;;;;;22.03;37.62;102029.16;5138594;27;20034;-86
2022/10/08 11:36:39;;;;;;;6.88;1.33;;;;;;;20.64;40.63;102046.09;5137537;27;20039;-87
2022/10/08 11:39:14;;;;;;;5.07;1.00;;;;;;;19.37;42.80;102050.00;5137656;27;20035;-87
2022/10/08 11:41:57;;;;;;;10.83;1.20;;;;;;;19.42;44.19;102038.25;5137919;27;20061;-87
2022/10/08 11:44:26;;;;;;;7.68;1.20;;;;;;;22.99;36.11;102028.34;5137796;27;20482;-87
2022/10/08 11:47:17;;;;;;;7.82;1.40;;;;;;;25.21;31.94;102030.75;5137643;27;20125;-87
2022/10/08 11:50:04;;;;;;;;;;;;;;;;;;;;;
2022/10/08 11:55:56;;;;;;;8.43;1.50;;;;;;;30.37;25.94;102038.16;5075049;27;20422;-88
2022/10/08 12:05:59;;;;;;;7.72;1.85;;;;;;;33.10;22.53;102040.47;5052096;28;20036;-88
2022/10/08 12:08:58;;;;;;;5.97;1.70;;;;;;;35.06;21.33;102023.59;5052685;28;20057;-89
2022/10/08 12:18:25;;;;;;;4.90;2.08;;;;;;;38.69;19.39;102016.28;5045232;28;20077;-88
2022/10/08 12:21:15;;;;;;;7.47;2.15;;;;;;;35.37;20.47;102010.84;5034548;28;20103;-88
2022/10/08 12:33:59;;;;;;;3.55;1.90;;;;;;;29.39;24.86;102017.41;5051200;28;20043;-88
2022/10/08 12:47:28;;;;;;;5.75;2.30;;;;;;;36.94;17.73;102023.81;5109967;28;20095;-88
2022/10/08 13:14:38;;;;;;;4.13;2.30;;;;;;;36.57;18.53;102019.34;5074855;28;20374;-88
2022/10/08 13:20:25;;;;;;;6.93;2.72;;;;;;;33.79;18.50;102032.63;5075227;28;20030;-87
2022/10/08 13:26:49;;;;;;;4.68;2.55;;;;;;;34.74;18.17;102041.13;5075552;28;20143;-87
2022/10/08 13:33:41;;;;;;;4.13;1.83;;;;;;;28.74;23.19;102047.28;5056231;28;20555;-88
2022/10/08 13:40:42;;;;;;;5.30;1.90;;;;;;;27.04;24.54;102052.81;5067429;28;20101;-87
2022/10/08 13:46:55;;;;;;;3.60;1.70;;;;;;;27.03;26.16;102051.16;5117451;28;20566;-87
2022/10/08 13:53:35;;;;;;;3.85;1.80;;;;;;;26.11;25.88;102054.91;5117121;28;20058;-87
2022/10/08 13:56:01;;;;;;;4.40;1.33;;;;;;;26.19;25.88;102052.34;5099145;28;20463;-87
2022/10/08 13:58:26;;;;;;;10.60;2.00;;;;;;;27.97;23.87;102054.28;5065286;28;20057;-86
2022/10/08 14:01:03;;;;;;;7.37;1.90;;;;;;;30.08;22.53;102050.66;5099383;28;20038;-87
2022/10/08 14:07:07;;;;;;;5.20;1.95;;;;;;;32.83;20.11;102058.63;5117029;28;20035;-87
2022/10/08 14:13:15;;;;;;;4.72;2.08;;;;;;;34.18;18.92;102066.16;5116872;28;20081;-87
2022/10/08 14:19:20;;;;;;;5.40;2.28;;;;;;;35.55;18.66;102050.88;5116404;28;20097;-87
2022/10/08 17:30:04;;;;;;;7.53;1.70;;;;;;;13.18;57.89;102242.88;5130846;27;20446;-88
2022/10/08 17:32:30;;;;;;;8.80;2.17;;;;;;;12.95;60.98;102234.97;5114235;28;20142;-85
2022/10/08 17:34:55;;;;;;;12.38;2.47;;;;;;;12.81;62.09;102237.59;5062496;28;20479;-85
2022/10/08 17:37:23;;;;;;;10.03;2.37;;;;;;;12.70;62.12;102240.00;5078797;28;20505;-86
2022/10/08 17:39:49;;;;;;;10.05;2.50;;;;;;;12.58;62.65;102240.50;5078790;28;20085;-85
2022/10/08 17:42:14;;;;;;;8.90;2.07;;;;;;;12.49;65.23;102235.38;5096585;28;20031;-85
2022/10/08 17:44:39;;;;;;;11.60;2.53;;;;;;;12.37;65.64;102248.66;5099085;28;20036;-86
2022/10/08 17:47:08;;;;;;;6.85;2.88;;;;;;;12.22;65.22;102245.97;5082117;28;20395;-85
2022/10/08 17:49:42;;;;;;;9.03;2.50;;;;;;;12.11;65.18;102256.31;5099261;28;20028;-85
2022/10/08 17:52:18;;;;;;;9.10;2.22;;;;;;;12.04;66.99;102263.56;5082590;28;20035;-85
2022/10/08 17:54:43;;;;;;;8.43;2.75;;;;;;;11.91;68.17;102269.66;5100270;28;20528;-85
2022/10/08 17:57:09;;;;;;;9.67;2.80;;;;;;;11.85;67.46;102278.56;5098431;28;20031;-85
2022/10/08 17:59:34;;;;;;;10.35;3.78;;;;;;;11.76;67.55;102274.25;5117112;28;20035;-85
2022/10/08 18:02:01;;;;;;;15.63;3.60;;;;;;;11.64;68.70;102270.34;5098798;28;20035;-85
2022/10/08 18:04:27;;;;;;;10.98;3.90;;;;;;;11.61;68.52;102276.16;5099293;28;20437;-85
2022/10/08 18:06:54;;;;;;;14.27;3.30;;;;;;;11.49;68.94;102273.88;5098716;28;20027;-86
2022/10/08 18:09:20;;;;;;;10.13;3.72;;;;;;;11.41;68.99;102266.69;5098755;28;20044;-85
2022/10/08 18:11:52;;;;;;;10.90;3.30;;;;;;;11.37;70.06;102272.69;5098549;28;20486;-85
2022/10/08 18:14:24;;;;;;;12.13;3.78;;;;;;;11.32;70.05;102281.34;5098122;28;20104;-85
2022/10/08 18:16:50;;;;;;;11.43;3.75;;;;;;;11.25;70.62;102288.59;5081593;28;20114;-84
2022/10/08 18:19:19;;;;;;;15.67;4.43;;;;;;;11.13;71.17;102296.34;5098247;28;20098;-85
2022/10/08 18:21:48;;;;;;;9.07;3.88;;;;;;;11.06;71.51;102292.66;5098619;28;20027;-85
2022/10/08 18:24:14;;;;;;;11.75;4.22;;;;;;;10.98;71.45;102290.00;5081751;28;20472;-85
2022/10/08 18:26:43;;;;;;;9.98;3.47;;;;;;;10.92;72.58;102297.00;5098054;28;20089;-85
2022/10/08 18:29:18;;;;;;;13.90;2.33;;;;;;;10.84;72.32;102297.09;5098211;28;20032;-85
2022/10/08 18:31:47;;;;;;;9.57;2.20;;;;;;;10.76;72.95;102297.97;5112759;27;20552;-86
2022/10/08 18:34:50;;;;;;;5.60;2.40;;;;;;;10.70;72.03;102313.13;5138500;27;20038;-85
2022/10/08 18:37:19;;;;;;;10.50;2.60;;;;;;;10.60;74.30;102317.97;5139998;27;20023;-85
2022/10/08 18:39:47;;;;;;;8.02;2.97;;;;;;;10.53;74.59;102319.69;5122806;27;20137;-85
2022/10/08 18:42:15;;;;;;;11.38;3.85;;;;;;;10.41;74.94;102307.53;5157600;27;20027;-85
2022/10/08 18:44:43;;;;;;;11.30;4.03;;;;;;;10.35;74.84;102307.25;5139699;27;20031;-85
2022/10/08 18:47:08;;;;;;;9.10;3.20;;;;;;;10.28;76.63;102305.41;5138903;27;20031;-85
2022/10/08 18:49:34;;;;;;;14.80;3.40;;;;;;;10.30;76.72;102325.88;5121802;27;20035;-84
2022/10/08 18:52:00;;;;;;;10.57;2.78;;;;;;;10.15;77.07;102319.53;5121553;27;20364;-85
2022/10/08 18:54:26;;;;;;;9.40;2.70;;;;;;;10.15;77.18;102322.25;5156800;27;20038;-85
2022/10/08 18:56:51;;;;;;;16.33;3.63;;;;;;;10.12;77.87;102333.44;5138500;27;20031;-85
2022/10/08 18:59:17;;;;;;;7.67;2.70;;;;;;;10.04;78.24;102328.03;5139319;27;20022;-85
2022/10/08 19:01:45;;;;;;;7.57;2.63;;;;;;;9.95;79.12;102325.38;5157317;27;20374;-85
2022/10/08 19:04:28;;;;;;;9.57;2.63;;;;;;;9.92;78.00;102333.84;5138236;27;20022;-85
2022/10/08 19:06:54;;;;;;;7.95;2.25;;;;;;;9.82;79.21;102325.91;5139195;27;20030;-84
2022/10/08 19:09:20;;;;;;;10.05;2.22;;;;;;;9.79;80.62;102330.84;5138841;27;20382;-85
2022/10/08 19:11:51;;;;;;;9.10;2.40;;;;;;;9.70;80.19;102324.59;5139812;27;20095;-85
2022/10/08 19:14:19;;;;;;;9.20;2.28;;;;;;;9.73;80.17;102345.06;5158113;27;20022;-84
2022/10/08 19:16:44;;;;;;;9.68;1.77;;;;;;;9.64;81.56;102331.56;5139513;27;20114;-85
2022/10/08 19:19:19;;;;;;;6.70;2.00;;;;;;;9.64;82.40;102346.94;5158244;27;20466;-85
2022/10/08 19:21:47;;;;;;;8.63;1.80;;;;;;;9.54;81.23;102340.91;5157800;27;20026;-85
2022/10/08 19:24:15;;;;;;;5.90;1.70;;;;;;;9.50;81.47;102334.97;5121374;27;20035;-84
2022/10/08 19:26:43;;;;;;;11.30;1.92;;;;;;;9.48;81.38;102345.16;5138500;27;20107;-85
2022/10/08 19:29:14;;;;;;;11.27;1.80;;;;;;;9.43;82.67;102347.50;5157321;27;20061;-85
2022/10/08 19:31:39;;;;;;;10.75;1.90;;;;;;;9.37;82.12;102349.03;5138003;27;20111;-85
2022/10/08 19:34:11;;;;;;;10.88;1.88;;;;;;;9.34;82.83;102357.50;5157181;27;20030;-85
2022/10/08 19:36:37;;;;;;;7.70;1.83;;;;;;;9.29;83.32;102357.19;5138360;27;20091;-85
2022/10/08 19:39:21;;;;;;;9.38;2.33;;;;;;;9.31;82.91;102368.69;5137890;27;20030;-85
2022/10/08 19:41:47;;;;;;;10.02;1.88;;;;;;;9.26;84.23;102365.66;5157099;27;20069;-85
2022/10/08 19:44:13;;;;;;;7.25;1.90;;;;;;;9.19;84.83;102357.34;5120746;27;20471;-85
2022/10/08 19:46:38;;;;;;;12.30;2.50;;;;;;;9.14;85.04;102359.72;5156081;27;20394;-85
2022/10/08 19:49:05;;;;;;;16.98;3.03;;;;;;;9.15;85.50;102366.81;5120636;27;20037;-85
2022/10/08 19:51:31;;;;;;;13.97;2.23;;;;;;;9.15;86.84;102372.22;5121519;27;20478;-85
2022/10/08 19:54:01;;;;;;;11.43;2.55;;;;;;;9.09;86.82;102362.06;5137823;27;20062;-85
2022/10/08 19:56:27;;;;;;;12.00;2.83;;;;;;;9.07;86.63;102372.25;5137879;27;20423;-85
2022/10/08 19:58:53;;;;;;;18.13;3.47;;;;;;;9.06;86.61;102374.06;5156100;27;20113;-85
2022/10/08 20:01:30;;;;;;;13.27;3.38;;;;;;;8.99;87.04;102364.97;5137566;27;20113;-85
2022/10/08 20:03:57;;;;;;;9.20;2.87;;;;;;;9.02;87.87;102371.88;5137801;27;20117;-84
2022/10/08 20:06:25;;;;;;;12.90;2.40;;;;;;;8.97;88.76;102380.50;5136487;27;20080;-85
2022/10/08 20:08:53;;;;;;;14.30;3.30;;;;;;;8.83;88.49;102365.78;5138201;27;20046;-85
2022/10/08 20:11:19;;;;;;;7.78;2.72;;;;;;;8.75;87.99;102365.75;5121234;27;20060;-85
2022/10/08 20:13:48;;;;;;;10.27;2.70;;;;;;;8.69;88.41;102380.78;5155628;27;20042;-85
2022/10/08 20:16:17;;;;;;;15.18;2.40;;;;;;;8.62;89.56;102374.34;5155833;27;20386;-85
2022/10/08 20:18:48;;;;;;;7.50;2.25;;;;;;;8.57;89.63;102364.00;5137192;27;20026;-85
2022/10/08 20:21:13;;;;;;;11.43;2.20;;;;;;;8.54;89.63;102366.22;5155558;27;20387;-84
2022/10/08 20:23:42;;;;;;;9.70;2.08;;;;;;;8.51;89.56;102378.22;5137100;27;20033;-84
2022/10/08 20:26:22;;;;;;;11.57;2.00;;;;;;;8.43;89.19;102372.75;5137279;27;20027;-85
2022/10/08 20:28:51;;;;;;;4.70;1.75;;;;;;;8.38;89.92;102388.63;5155434;27;20019;-85
2022/10/08 20:31:24;;;;;;;7.93;2.15;;;;;;;8.26;90.00;102386.19;5133322;27;20047;-85
2022/10/08 20:34:01;;;;;;;14.48;2.75;;;;;;;8.17;90.02;102379.06;5134168;27;20026;-85
2022/10/08 20:36:30;;;;;;;11.60;2.30;;;;;;;8.13;90.33;102385.78;5133291;27;20023;-85
2022/10/08 20:38:56;;;;;;;8.37;1.93;;;;;;;8.06;91.15;102382.03;5134234;27;20023;-84
2022/10/08 20:41:24;;;;;;;10.20;2.50;;;;;;;8.06;91.79;102385.59;5133163;27;20027;-85
2022/10/08 20:43:51;;;;;;;12.55;2.08;;;;;;;8.08;92.86;102385.44;5116313;27;20447;-85
2022/10/08 20:46:19;;;;;;;10.48;2.33;;;;;;;8.07;93.23;102397.25;5133378;27;20478;-85
2022/10/08 20:48:45;;;;;;;12.68;2.60;;;;;;;7.95;92.93;102383.16;5134433;28;20031;-85